Details From UBBB - Heydar Aliyev
To UDYZ - Zvartnots
Flight Number -
Tags Generated
Created
Modified
Stats Distance 260 nm / 482 km
Max Altitude 0 ft / 0 m
Waypoints 3
Social Downloads 0
Likes 0
Share VATSIM

Download

Looking for another format? Having issues loading an existing format? Contact us
Advertisement - Login to hide

Notes

Generated

Route

UBBB ZVR85 UDYZ

ID Type Via Altitude Latitude Longitude Leg Dist Tot Dist Heading (true) Name
O UBBB APT - 0 ft / 0 m 40.48000˚ 50.03500˚ - 0 nm - -
ZVR85 FIX - 0 ft / 0 m 40.14715˚ 44.46048˚ 256 nm 256 nm 267° / 264° -
O UDYZ APT - 0 ft / 0 m 40.14715˚ 44.37329˚ 4 nm 260 nm 270° / 270° -

Altitude Profile

Advertisement - Login to hide

Weather


0- 5 10 15 20 25 30 35+ Temperature / ° C

Clouds and Precipitation
Forecast for 2018-05-27 18:00 UTC. Updated 5 hours ago

Ground ~20,000 ft ~40,000 ft Winds

UBBB

Details ICAO UBBB (GYD)
Name HEYDAR ALIYEV
Region Azerbiajan
Timezone Asia/Baku (UTC+4.0)
Stats Elevation 10 ft / 3 m (AMSL)
Location 40.470000° 50.052083°
Runways 2
Magnetic Variation 6.265° E

METAR

UBBB 272200Z 22002KT CAVOK 12/09 Q1024 R88/D NOSIG

Decode

TAF

TAF UBBB 271715Z 2718/2818 33008KT 9999 SCT020 SCT100 TX22/2811Z TN12/2803Z TEMPO 2718/2724 28006KT SCT012 BECMG 2800/2802 20008KT TEMPO 2802/2804 6000 SCT008 BECMG 2804/2806 16012KT

Decode

Departure Runways

ID Width Length Bearing (true) Bearing (mag) Surface Threshold Offset Overrun Length
16 197 ft / 60 m 9,110 ft / 2,777 m 159.17° 152.91° Asphalt 0 ft / 0 m 1,312 ft / 400 m
18 167 ft / 51 m 10,947 ft / 3,337 m 180.00° 173.74° Concrete 0 ft / 0 m 1,312 ft / 400 m
34 197 ft / 60 m 9,110 ft / 2,777 m 339.18° 332.92° Asphalt 0 ft / 0 m 656 ft / 200 m
36 167 ft / 51 m 10,947 ft / 3,337 m 0.00° 353.74° Concrete 444 ft / 135 m 541 ft / 165 m

UDYZ

Details ICAO UDYZ (EVN)
Name ZVARTNOTS
Region Armenia
Timezone Asia/Yerevan (UTC+4.0)
Stats Elevation 2,838 ft / 865 m (AMSL)
Location 40.147271° 44.395880°
Runways 1
Magnetic Variation 6.235° E

METAR

UDYZ 272200Z 35008KT 9999 FEW046 19/09 Q1020 R09/010070 NOSIG

Decode

TAF

TAF UDYZ 271715Z 2718/2818 04006KT 9999 FEW040 TEMPO 2718/2721 VRB20G30KT -TSRA BKN030CB

Decode

Destination Runways

ID Width Length Bearing (true) Bearing (mag) Surface Threshold Offset Overrun Length
09 184 ft / 56 m 12,601 ft / 3,841 m 89.59° 83.36° Asphalt 0 ft / 0 m 0 ft / 0 m
27 184 ft / 56 m 12,601 ft / 3,841 m 269.62° 263.39° Asphalt 0 ft / 0 m 0 ft / 0 m

Approach Navaids

Runway Type Ident Frequency Range Bearing (true) Bearing (mag) Slope Elevation
09 Localiser IZR 108.10 MHz 18 nm / 33 km 89.83° 83.60° - 2,838 ft / 865 m (AMSL)
09 Glidescope IZR 108.10 MHz 10 nm / 19 km 89.61° 83.37° 2.67° 2,838 ft / 865 m (AMSL)

Popular Alternatives